sensor_id;sensor_type;location;lat;lon;timestamp;P1;durP1;ratioP1;P2;durP2;ratioP2
66739;SDS011;53653;52.188;8.602;2023-02-13T00:01:20;36.15;;;19.60;;
66739;SDS011;53653;52.188;8.602;2023-02-13T00:03:46;42.23;;;20.77;;
66739;SDS011;53653;52.188;8.602;2023-02-13T00:06:12;40.42;;;20.70;;
66739;SDS011;53653;52.188;8.602;2023-02-13T00:08:39;42.80;;;20.43;;
66739;SDS011;53653;52.188;8.602;2023-02-13T00:11:04;41.92;;;21.02;;
66739;SDS011;53653;52.188;8.602;2023-02-13T00:13:31;42.15;;;21.15;;
66739;SDS011;53653;52.188;8.602;2023-02-13T00:15:58;45.00;;;20.97;;
66739;SDS011;53653;52.188;8.602;2023-02-13T00:18:26;41.25;;;21.33;;
66739;SDS011;53653;52.188;8.602;2023-02-13T00:21:11;41.22;;;21.13;;
66739;SDS011;53653;52.188;8.602;2023-02-13T00:23:38;44.08;;;20.92;;
66739;SDS011;53653;52.188;8.602;2023-02-13T00:26:05;38.60;;;19.88;;
66739;SDS011;53653;52.188;8.602;2023-02-13T00:28:33;40.33;;;20.90;;
66739;SDS011;53653;52.188;8.602;2023-02-13T00:31:03;39.85;;;20.27;;
66739;SDS011;53653;52.188;8.602;2023-02-13T00:33:33;41.92;;;21.00;;
66739;SDS011;53653;52.188;8.602;2023-02-13T00:36:05;43.13;;;21.05;;
66739;SDS011;53653;52.188;8.602;2023-02-13T00:38:36;37.38;;;20.40;;
66739;SDS011;53653;52.188;8.602;2023-02-13T00:41:03;40.03;;;19.13;;
66739;SDS011;53653;52.188;8.602;2023-02-13T00:43:29;40.92;;;19.80;;
66739;SDS011;53653;52.188;8.602;2023-02-13T00:45:55;42.22;;;19.52;;
66739;SDS011;53653;52.188;8.602;2023-02-13T00:48:26;39.97;;;20.30;;
66739;SDS011;53653;52.188;8.602;2023-02-13T00:50:53;36.95;;;18.52;;
66739;SDS011;53653;52.188;8.602;2023-02-13T00:53:20;35.20;;;18.20;;
66739;SDS011;53653;52.188;8.602;2023-02-13T00:55:47;37.65;;;19.02;;
66739;SDS011;53653;52.188;8.602;2023-02-13T00:58:15;38.85;;;18.10;;
66739;SDS011;53653;52.188;8.602;2023-02-13T01:00:42;39.75;;;20.35;;
66739;SDS011;53653;52.188;8.602;2023-02-13T01:03:10;36.38;;;18.00;;
66739;SDS011;53653;52.188;8.602;2023-02-13T01:05:37;40.37;;;19.53;;
66739;SDS011;53653;52.188;8.602;2023-02-13T01:08:03;39.95;;;18.30;;
66739;SDS011;53653;52.188;8.602;2023-02-13T01:10:29;34.78;;;18.70;;
66739;SDS011;53653;52.188;8.602;2023-02-13T01:12:55;37.33;;;18.83;;
66739;SDS011;53653;52.188;8.602;2023-02-13T01:15:21;32.20;;;17.45;;
66739;SDS011;53653;52.188;8.602;2023-02-13T01:17:48;31.95;;;17.00;;
66739;SDS011;53653;52.188;8.602;2023-02-13T01:20:16;34.83;;;16.70;;
66739;SDS011;53653;52.188;8.602;2023-02-13T01:22:43;33.33;;;17.70;;
66739;SDS011;53653;52.188;8.602;2023-02-13T01:25:09;38.42;;;18.33;;
66739;SDS011;53653;52.188;8.602;2023-02-13T01:27:35;34.13;;;18.10;;
66739;SDS011;53653;52.188;8.602;2023-02-13T01:30:03;32.10;;;16.38;;
66739;SDS011;53653;52.188;8.602;2023-02-13T01:32:30;33.35;;;16.60;;
66739;SDS011;53653;52.188;8.602;2023-02-13T01:34:55;34.97;;;17.10;;
66739;SDS011;53653;52.188;8.602;2023-02-13T01:37:21;37.10;;;17.85;;
66739;SDS011;53653;52.188;8.602;2023-02-13T01:39:47;31.60;;;16.73;;
66739;SDS011;53653;52.188;8.602;2023-02-13T01:42:15;30.50;;;16.08;;
66739;SDS011;53653;52.188;8.602;2023-02-13T01:44:50;30.23;;;15.30;;
66739;SDS011;53653;52.188;8.602;2023-02-13T01:53:06;29.75;;;15.35;;
66739;SDS011;53653;52.188;8.602;2023-02-13T01:55:42;31.80;;;15.73;;
66739;SDS011;53653;52.188;8.602;2023-02-13T01:58:13;27.37;;;13.67;;
66739;SDS011;53653;52.188;8.602;2023-02-13T02:00:43;27.67;;;12.70;;
66739;SDS011;53653;52.188;8.602;2023-02-13T02:03:59;26.83;;;13.25;;
66739;SDS011;53653;52.188;8.602;2023-02-13T02:06:11;29.20;;;12.75;;
66739;SDS011;53653;52.188;8.602;2023-02-13T02:08:42;26.23;;;13.82;;
66739;SDS011;53653;52.188;8.602;2023-02-13T02:11:16;28.63;;;13.53;;
66739;SDS011;53653;52.188;8.602;2023-02-13T02:13:50;30.13;;;12.95;;
66739;SDS011;53653;52.188;8.602;2023-02-13T02:16:27;25.65;;;12.45;;
66739;SDS011;53653;52.188;8.602;2023-02-13T02:18:54;26.08;;;12.35;;
66739;SDS011;53653;52.188;8.602;2023-02-13T02:21:41;26.77;;;11.65;;
66739;SDS011;53653;52.188;8.602;2023-02-13T02:27:05;26.55;;;11.85;;
66739;SDS011;53653;52.188;8.602;2023-02-13T02:30:04;27.55;;;11.55;;
66739;SDS011;53653;52.188;8.602;2023-02-13T02:41:09;21.23;;;9.30;;
66739;SDS011;53653;52.188;8.602;2023-02-13T02:47:07;24.02;;;10.10;;
66739;SDS011;53653;52.188;8.602;2023-02-13T02:55:38;23.83;;;9.23;;
66739;SDS011;53653;52.188;8.602;2023-02-13T02:58:12;22.08;;;9.52;;
66739;SDS011;53653;52.188;8.602;2023-02-13T03:00:59;23.38;;;9.90;;
66739;SDS011;53653;52.188;8.602;2023-02-13T03:03:45;22.63;;;9.43;;
66739;SDS011;53653;52.188;8.602;2023-02-13T03:06:39;23.83;;;9.57;;
66739;SDS011;53653;52.188;8.602;2023-02-13T03:09:13;22.15;;;9.73;;
66739;SDS011;53653;52.188;8.602;2023-02-13T03:12:01;19.73;;;8.55;;
66739;SDS011;53653;52.188;8.602;2023-02-13T03:14:46;20.23;;;9.02;;
66739;SDS011;53653;52.188;8.602;2023-02-13T03:17:12;21.27;;;8.57;;
66739;SDS011;53653;52.188;8.602;2023-02-13T03:23:22;20.83;;;8.18;;
66739;SDS011;53653;52.188;8.602;2023-02-13T03:28:33;20.77;;;7.17;;
66739;SDS011;53653;52.188;8.602;2023-02-13T03:34:26;19.88;;;7.43;;
66739;SDS011;53653;52.188;8.602;2023-02-13T03:37:16;19.20;;;7.78;;
66739;SDS011;53653;52.188;8.602;2023-02-13T03:40:07;17.75;;;6.50;;
66739;SDS011;53653;52.188;8.602;2023-02-13T03:45:22;18.80;;;7.07;;
66739;SDS011;53653;52.188;8.602;2023-02-13T03:48:13;19.80;;;7.38;;
66739;SDS011;53653;52.188;8.602;2023-02-13T03:50:59;18.38;;;6.25;;
66739;SDS011;53653;52.188;8.602;2023-02-13T03:53:27;15.80;;;6.22;;
66739;SDS011;53653;52.188;8.602;2023-02-13T03:55:57;19.37;;;6.77;;
66739;SDS011;53653;52.188;8.602;2023-02-13T03:58:47;16.77;;;6.28;;
66739;SDS011;53653;52.188;8.602;2023-02-13T04:01:35;16.40;;;6.22;;
66739;SDS011;53653;52.188;8.602;2023-02-13T04:04:22;15.98;;;5.60;;
66739;SDS011;53653;52.188;8.602;2023-02-13T04:07:02;18.75;;;6.50;;
66739;SDS011;53653;52.188;8.602;2023-02-13T04:09:36;17.17;;;6.30;;
66739;SDS011;53653;52.188;8.602;2023-02-13T04:14:48;17.52;;;6.57;;
66739;SDS011;53653;52.188;8.602;2023-02-13T04:17:42;17.75;;;6.45;;
66739;SDS011;53653;52.188;8.602;2023-02-13T04:20:12;18.65;;;6.75;;
66739;SDS011;53653;52.188;8.602;2023-02-13T04:22:43;19.00;;;6.00;;
66739;SDS011;53653;52.188;8.602;2023-02-13T04:25:10;18.38;;;6.18;;
66739;SDS011;53653;52.188;8.602;2023-02-13T04:27:39;17.98;;;6.53;;
66739;SDS011;53653;52.188;8.602;2023-02-13T04:30:05;19.08;;;7.15;;
66739;SDS011;53653;52.188;8.602;2023-02-13T04:32:31;17.97;;;6.90;;
66739;SDS011;53653;52.188;8.602;2023-02-13T04:34:57;19.40;;;7.65;;
66739;SDS011;53653;52.188;8.602;2023-02-13T04:37:23;19.90;;;7.82;;
66739;SDS011;53653;52.188;8.602;2023-02-13T04:39:49;20.43;;;7.63;;
66739;SDS011;53653;52.188;8.602;2023-02-13T04:42:15;18.83;;;7.65;;
66739;SDS011;53653;52.188;8.602;2023-02-13T04:44:40;22.47;;;9.30;;
66739;SDS011;53653;52.188;8.602;2023-02-13T04:47:07;20.05;;;7.93;;
66739;SDS011;53653;52.188;8.602;2023-02-13T04:49:33;19.42;;;8.18;;
66739;SDS011;53653;52.188;8.602;2023-02-13T04:51:58;21.87;;;8.67;;
66739;SDS011;53653;52.188;8.602;2023-02-13T04:54:24;18.53;;;8.00;;
66739;SDS011;53653;52.188;8.602;2023-02-13T04:56:50;23.85;;;9.32;;
66739;SDS011;53653;52.188;8.602;2023-02-13T04:59:17;21.85;;;8.80;;
66739;SDS011;53653;52.188;8.602;2023-02-13T05:01:43;23.03;;;8.47;;
66739;SDS011;53653;52.188;8.602;2023-02-13T05:04:08;22.90;;;8.63;;
66739;SDS011;53653;52.188;8.602;2023-02-13T05:06:35;23.80;;;8.60;;
66739;SDS011;53653;52.188;8.602;2023-02-13T05:09:02;25.63;;;9.05;;
66739;SDS011;53653;52.188;8.602;2023-02-13T05:11:28;25.00;;;9.93;;
66739;SDS011;53653;52.188;8.602;2023-02-13T05:13:53;27.23;;;10.47;;
66739;SDS011;53653;52.188;8.602;2023-02-13T05:16:22;27.95;;;9.63;;
66739;SDS011;53653;52.188;8.602;2023-02-13T05:18:48;27.17;;;10.03;;
66739;SDS011;53653;52.188;8.602;2023-02-13T05:21:13;29.42;;;9.57;;
66739;SDS011;53653;52.188;8.602;2023-02-13T05:23:57;27.58;;;9.88;;
66739;SDS011;53653;52.188;8.602;2023-02-13T05:26:23;29.03;;;10.50;;
66739;SDS011;53653;52.188;8.602;2023-02-13T05:28:49;27.73;;;9.70;;
66739;SDS011;53653;52.188;8.602;2023-02-13T05:31:33;25.73;;;9.55;;
66739;SDS011;53653;52.188;8.602;2023-02-13T05:33:58;28.45;;;10.95;;
66739;SDS011;53653;52.188;8.602;2023-02-13T05:36:24;27.40;;;10.27;;
66739;SDS011;53653;52.188;8.602;2023-02-13T05:38:50;24.20;;;9.40;;
66739;SDS011;53653;52.188;8.602;2023-02-13T05:41:15;27.77;;;9.75;;
66739;SDS011;53653;52.188;8.602;2023-02-13T05:43:41;27.80;;;10.07;;
66739;SDS011;53653;52.188;8.602;2023-02-13T05:46:07;30.17;;;11.45;;
66739;SDS011;53653;52.188;8.602;2023-02-13T05:48:35;32.17;;;11.13;;
66739;SDS011;53653;52.188;8.602;2023-02-13T05:51:01;25.97;;;9.77;;
66739;SDS011;53653;52.188;8.602;2023-02-13T05:53:27;29.10;;;10.25;;
66739;SDS011;53653;52.188;8.602;2023-02-13T05:55:54;33.95;;;9.35;;
66739;SDS011;53653;52.188;8.602;2023-02-13T05:58:19;25.83;;;10.47;;
66739;SDS011;53653;52.188;8.602;2023-02-13T06:00:46;31.40;;;10.35;;
66739;SDS011;53653;52.188;8.602;2023-02-13T06:03:12;28.02;;;10.10;;
66739;SDS011;53653;52.188;8.602;2023-02-13T06:05:38;29.48;;;9.60;;
66739;SDS011;53653;52.188;8.602;2023-02-13T06:08:05;26.17;;;9.77;;
66739;SDS011;53653;52.188;8.602;2023-02-13T06:10:31;27.80;;;10.55;;
66739;SDS011;53653;52.188;8.602;2023-02-13T06:12:58;29.98;;;10.82;;
66739;SDS011;53653;52.188;8.602;2023-02-13T06:15:24;28.00;;;10.13;;
66739;SDS011;53653;52.188;8.602;2023-02-13T06:17:49;26.73;;;9.18;;
66739;SDS011;53653;52.188;8.602;2023-02-13T06:20:15;26.70;;;9.60;;
66739;SDS011;53653;52.188;8.602;2023-02-13T06:22:41;24.67;;;9.10;;
66739;SDS011;53653;52.188;8.602;2023-02-13T06:25:06;27.67;;;9.07;;
66739;SDS011;53653;52.188;8.602;2023-02-13T06:27:32;22.15;;;8.35;;
66739;SDS011;53653;52.188;8.602;2023-02-13T06:29:59;23.70;;;8.93;;
66739;SDS011;53653;52.188;8.602;2023-02-13T06:32:25;23.67;;;8.85;;
66739;SDS011;53653;52.188;8.602;2023-02-13T06:34:50;23.10;;;8.23;;
66739;SDS011;53653;52.188;8.602;2023-02-13T06:37:16;24.55;;;7.72;;
66739;SDS011;53653;52.188;8.602;2023-02-13T06:39:42;22.87;;;7.63;;
66739;SDS011;53653;52.188;8.602;2023-02-13T06:42:08;23.00;;;8.60;;
66739;SDS011;53653;52.188;8.602;2023-02-13T06:44:34;20.58;;;7.85;;
66739;SDS011;53653;52.188;8.602;2023-02-13T06:47:00;23.87;;;7.37;;
66739;SDS011;53653;52.188;8.602;2023-02-13T06:49:25;24.40;;;7.75;;
66739;SDS011;53653;52.188;8.602;2023-02-13T06:51:51;23.60;;;7.93;;
66739;SDS011;53653;52.188;8.602;2023-02-13T06:54:17;23.50;;;7.47;;
66739;SDS011;53653;52.188;8.602;2023-02-13T06:56:42;22.02;;;8.07;;
66739;SDS011;53653;52.188;8.602;2023-02-13T06:59:08;20.87;;;8.00;;
66739;SDS011;53653;52.188;8.602;2023-02-13T07:01:33;25.08;;;7.80;;
66739;SDS011;53653;52.188;8.602;2023-02-13T07:04:00;19.37;;;7.83;;
66739;SDS011;53653;52.188;8.602;2023-02-13T07:06:26;21.23;;;8.27;;
66739;SDS011;53653;52.188;8.602;2023-02-13T07:08:52;22.73;;;8.30;;
66739;SDS011;53653;52.188;8.602;2023-02-13T07:11:20;23.63;;;8.25;;
66739;SDS011;53653;52.188;8.602;2023-02-13T07:13:48;21.63;;;8.45;;
66739;SDS011;53653;52.188;8.602;2023-02-13T07:16:14;21.23;;;8.10;;
66739;SDS011;53653;52.188;8.602;2023-02-13T07:18:40;23.60;;;8.15;;
66739;SDS011;53653;52.188;8.602;2023-02-13T07:21:06;19.33;;;6.78;;
66739;SDS011;53653;52.188;8.602;2023-02-13T07:23:32;22.23;;;7.60;;
66739;SDS011;53653;52.188;8.602;2023-02-13T07:25:58;20.70;;;8.00;;
66739;SDS011;53653;52.188;8.602;2023-02-13T07:28:24;20.02;;;7.50;;
66739;SDS011;53653;52.188;8.602;2023-02-13T07:30:50;20.85;;;8.15;;
66739;SDS011;53653;52.188;8.602;2023-02-13T07:33:18;21.23;;;7.45;;
66739;SDS011;53653;52.188;8.602;2023-02-13T07:35:47;21.63;;;8.20;;
66739;SDS011;53653;52.188;8.602;2023-02-13T07:38:16;27.25;;;7.68;;
66739;SDS011;53653;52.188;8.602;2023-02-13T07:40:42;24.45;;;7.22;;
66739;SDS011;53653;52.188;8.602;2023-02-13T07:43:08;20.60;;;7.50;;
66739;SDS011;53653;52.188;8.602;2023-02-13T07:45:34;20.73;;;7.17;;
66739;SDS011;53653;52.188;8.602;2023-02-13T07:48:00;21.50;;;7.78;;
66739;SDS011;53653;52.188;8.602;2023-02-13T07:50:26;19.23;;;7.03;;
66739;SDS011;53653;52.188;8.602;2023-02-13T07:52:55;22.35;;;8.43;;
66739;SDS011;53653;52.188;8.602;2023-02-13T07:55:23;21.25;;;7.70;;
66739;SDS011;53653;52.188;8.602;2023-02-13T07:57:48;22.53;;;8.43;;
66739;SDS011;53653;52.188;8.602;2023-02-13T08:00:15;22.58;;;8.10;;
66739;SDS011;53653;52.188;8.602;2023-02-13T08:02:41;20.38;;;7.25;;
66739;SDS011;53653;52.188;8.602;2023-02-13T08:05:07;19.88;;;7.82;;
66739;SDS011;53653;52.188;8.602;2023-02-13T08:07:33;24.37;;;7.93;;
66739;SDS011;53653;52.188;8.602;2023-02-13T08:09:59;23.90;;;8.05;;
66739;SDS011;53653;52.188;8.602;2023-02-13T08:12:44;25.67;;;7.63;;
66739;SDS011;53653;52.188;8.602;2023-02-13T08:15:13;20.13;;;7.07;;
66739;SDS011;53653;52.188;8.602;2023-02-13T08:17:40;25.47;;;8.83;;
66739;SDS011;53653;52.188;8.602;2023-02-13T08:20:06;27.85;;;8.52;;
66739;SDS011;53653;52.188;8.602;2023-02-13T08:22:33;20.53;;;7.63;;
66739;SDS011;53653;52.188;8.602;2023-02-13T08:25:00;26.27;;;8.27;;
66739;SDS011;53653;52.188;8.602;2023-02-13T08:27:26;22.88;;;8.07;;
66739;SDS011;53653;52.188;8.602;2023-02-13T08:29:55;22.52;;;8.57;;
66739;SDS011;53653;52.188;8.602;2023-02-13T08:32:22;23.67;;;8.20;;
66739;SDS011;53653;52.188;8.602;2023-02-13T08:34:49;24.17;;;8.68;;
66739;SDS011;53653;52.188;8.602;2023-02-13T08:37:17;23.60;;;7.32;;
66739;SDS011;53653;52.188;8.602;2023-02-13T08:39:43;20.47;;;8.33;;
66739;SDS011;53653;52.188;8.602;2023-02-13T08:42:09;24.60;;;7.90;;
66739;SDS011;53653;52.188;8.602;2023-02-13T08:44:34;24.47;;;8.67;;
66739;SDS011;53653;52.188;8.602;2023-02-13T08:47:01;18.58;;;7.63;;
66739;SDS011;53653;52.188;8.602;2023-02-13T08:49:31;24.17;;;8.18;;
66739;SDS011;53653;52.188;8.602;2023-02-13T08:51:57;25.50;;;8.05;;
66739;SDS011;53653;52.188;8.602;2023-02-13T08:54:24;25.05;;;8.60;;
66739;SDS011;53653;52.188;8.602;2023-02-13T08:56:51;24.23;;;8.83;;
66739;SDS011;53653;52.188;8.602;2023-02-13T08:59:17;22.58;;;8.13;;
66739;SDS011;53653;52.188;8.602;2023-02-13T09:01:43;22.27;;;8.32;;
66739;SDS011;53653;52.188;8.602;2023-02-13T09:04:10;25.17;;;8.52;;
66739;SDS011;53653;52.188;8.602;2023-02-13T09:06:35;26.57;;;9.07;;
66739;SDS011;53653;52.188;8.602;2023-02-13T09:09:03;22.80;;;8.40;;
66739;SDS011;53653;52.188;8.602;2023-02-13T09:11:29;26.73;;;9.43;;
66739;SDS011;53653;52.188;8.602;2023-02-13T09:13:55;23.37;;;9.10;;
66739;SDS011;53653;52.188;8.602;2023-02-13T09:16:21;26.67;;;9.13;;
66739;SDS011;53653;52.188;8.602;2023-02-13T09:18:47;25.83;;;8.77;;
66739;SDS011;53653;52.188;8.602;2023-02-13T09:21:13;23.07;;;8.30;;
66739;SDS011;53653;52.188;8.602;2023-02-13T09:23:39;24.30;;;9.07;;
66739;SDS011;53653;52.188;8.602;2023-02-13T09:26:06;23.88;;;8.70;;
66739;SDS011;53653;52.188;8.602;2023-02-13T09:28:34;24.58;;;9.18;;
66739;SDS011;53653;52.188;8.602;2023-02-13T09:31:07;22.07;;;8.40;;
66739;SDS011;53653;52.188;8.602;2023-02-13T09:33:39;24.42;;;8.55;;
66739;SDS011;53653;52.188;8.602;2023-02-13T09:36:09;25.45;;;9.27;;
66739;SDS011;53653;52.188;8.602;2023-02-13T09:38:39;23.35;;;9.15;;
66739;SDS011;53653;52.188;8.602;2023-02-13T09:41:15;22.27;;;8.73;;
66739;SDS011;53653;52.188;8.602;2023-02-13T09:43:50;23.13;;;9.80;;
66739;SDS011;53653;52.188;8.602;2023-02-13T09:46:27;19.35;;;8.30;;
66739;SDS011;53653;52.188;8.602;2023-02-13T09:48:58;19.65;;;7.95;;
66739;SDS011;53653;52.188;8.602;2023-02-13T09:51:29;23.33;;;9.30;;
66739;SDS011;53653;52.188;8.602;2023-02-13T09:53:56;22.47;;;9.20;;
66739;SDS011;53653;52.188;8.602;2023-02-13T10:01:44;24.58;;;8.88;;
66739;SDS011;53653;52.188;8.602;2023-02-13T10:04:22;23.97;;;9.03;;
66739;SDS011;53653;52.188;8.602;2023-02-13T10:06:53;24.98;;;8.52;;
66739;SDS011;53653;52.188;8.602;2023-02-13T10:18:13;21.30;;;7.07;;
66739;SDS011;53653;52.188;8.602;2023-02-13T10:20:44;27.38;;;8.13;;
66739;SDS011;53653;52.188;8.602;2023-02-13T10:26:15;24.10;;;7.20;;
66739;SDS011;53653;52.188;8.602;2023-02-13T10:28:59;19.13;;;7.00;;
66739;SDS011;53653;52.188;8.602;2023-02-13T10:31:48;19.60;;;7.83;;
66739;SDS011;53653;52.188;8.602;2023-02-13T10:34:20;25.50;;;8.27;;
66739;SDS011;53653;52.188;8.602;2023-02-13T10:36:50;21.58;;;8.73;;
66739;SDS011;53653;52.188;8.602;2023-02-13T10:39:26;20.45;;;7.55;;
66739;SDS011;53653;52.188;8.602;2023-02-13T10:41:54;23.20;;;8.10;;
66739;SDS011;53653;52.188;8.602;2023-02-13T10:51:34;20.65;;;6.13;;
66739;SDS011;53653;52.188;8.602;2023-02-13T10:56:58;14.55;;;5.70;;
66739;SDS011;53653;52.188;8.602;2023-02-13T11:02:25;14.02;;;5.38;;
66739;SDS011;53653;52.188;8.602;2023-02-13T11:05:39;12.10;;;4.90;;
66739;SDS011;53653;52.188;8.602;2023-02-13T11:07:49;17.60;;;5.78;;
66739;SDS011;53653;52.188;8.602;2023-02-13T11:12:40;13.60;;;5.00;;
66739;SDS011;53653;52.188;8.602;2023-02-13T11:15:07;16.30;;;5.95;;
66739;SDS011;53653;52.188;8.602;2023-02-13T11:17:45;16.47;;;5.10;;
66739;SDS011;53653;52.188;8.602;2023-02-13T11:26:02;13.23;;;5.30;;
66739;SDS011;53653;52.188;8.602;2023-02-13T11:28:38;14.00;;;5.60;;
66739;SDS011;53653;52.188;8.602;2023-02-13T11:31:20;15.57;;;5.40;;
66739;SDS011;53653;52.188;8.602;2023-02-13T11:33:51;15.13;;;5.68;;
66739;SDS011;53653;52.188;8.602;2023-02-13T11:36:28;15.82;;;6.50;;
66739;SDS011;53653;52.188;8.602;2023-02-13T11:39:05;13.88;;;5.78;;
66739;SDS011;53653;52.188;8.602;2023-02-13T11:41:42;16.67;;;7.35;;
66739;SDS011;53653;52.188;8.602;2023-02-13T11:44:26;15.83;;;6.40;;
66739;SDS011;53653;52.188;8.602;2023-02-13T11:47:11;14.90;;;6.53;;
66739;SDS011;53653;52.188;8.602;2023-02-13T11:49:38;17.35;;;6.90;;
66739;SDS011;53653;52.188;8.602;2023-02-13T11:52:31;16.58;;;6.80;;
66739;SDS011;53653;52.188;8.602;2023-02-13T11:54:59;18.35;;;7.05;;
66739;SDS011;53653;52.188;8.602;2023-02-13T11:57:30;17.30;;;7.40;;
66739;SDS011;53653;52.188;8.602;2023-02-13T12:00:46;18.70;;;7.00;;
66739;SDS011;53653;52.188;8.602;2023-02-13T12:02:51;17.48;;;6.70;;
66739;SDS011;53653;52.188;8.602;2023-02-13T12:05:24;15.70;;;6.70;;
66739;SDS011;53653;52.188;8.602;2023-02-13T12:07:52;19.10;;;6.93;;
66739;SDS011;53653;52.188;8.602;2023-02-13T12:10:22;16.83;;;6.60;;
66739;SDS011;53653;52.188;8.602;2023-02-13T12:12:58;14.02;;;5.95;;
66739;SDS011;53653;52.188;8.602;2023-02-13T12:15:34;15.55;;;6.30;;
66739;SDS011;53653;52.188;8.602;2023-02-13T12:20:39;14.90;;;5.78;;
66739;SDS011;53653;52.188;8.602;2023-02-13T12:26:04;17.33;;;6.78;;
66739;SDS011;53653;52.188;8.602;2023-02-13T12:28:44;14.20;;;6.40;;
66739;SDS011;53653;52.188;8.602;2023-02-13T12:31:29;13.83;;;5.90;;
66739;SDS011;53653;52.188;8.602;2023-02-13T12:34:17;15.25;;;6.28;;
66739;SDS011;53653;52.188;8.602;2023-02-13T12:39:34;13.73;;;6.00;;
66739;SDS011;53653;52.188;8.602;2023-02-13T12:53:30;14.98;;;6.22;;
66739;SDS011;53653;52.188;8.602;2023-02-13T12:59:08;15.73;;;6.77;;
66739;SDS011;53653;52.188;8.602;2023-02-13T13:10:14;18.38;;;6.97;;
66739;SDS011;53653;52.188;8.602;2023-02-13T13:12:54;17.50;;;6.43;;
66739;SDS011;53653;52.188;8.602;2023-02-13T13:24:00;15.73;;;6.10;;
66739;SDS011;53653;52.188;8.602;2023-02-13T13:26:45;16.37;;;6.47;;
66739;SDS011;53653;52.188;8.602;2023-02-13T13:29:50;15.77;;;6.40;;
66739;SDS011;53653;52.188;8.602;2023-02-13T13:32:20;15.93;;;6.60;;
66739;SDS011;53653;52.188;8.602;2023-02-13T13:34:46;16.75;;;6.03;;
66739;SDS011;53653;52.188;8.602;2023-02-13T13:37:19;15.00;;;6.17;;
66739;SDS011;53653;52.188;8.602;2023-02-13T13:42:39;14.82;;;5.72;;
66739;SDS011;53653;52.188;8.602;2023-02-13T13:45:21;20.30;;;6.07;;
66739;SDS011;53653;52.188;8.602;2023-02-13T13:48:33;18.30;;;6.18;;
66739;SDS011;53653;52.188;8.602;2023-02-13T13:51:08;15.60;;;5.50;;
66739;SDS011;53653;52.188;8.602;2023-02-13T13:53:42;16.45;;;6.15;;
66739;SDS011;53653;52.188;8.602;2023-02-13T13:56:26;14.23;;;6.43;;
66739;SDS011;53653;52.188;8.602;2023-02-13T13:59:15;15.68;;;7.03;;
66739;SDS011;53653;52.188;8.602;2023-02-13T14:01:42;16.00;;;6.82;;
66739;SDS011;53653;52.188;8.602;2023-02-13T14:09:40;13.38;;;5.55;;
66739;SDS011;53653;52.188;8.602;2023-02-13T14:14:50;16.15;;;6.15;;
66739;SDS011;53653;52.188;8.602;2023-02-13T14:18:02;13.65;;;5.72;;
66739;SDS011;53653;52.188;8.602;2023-02-13T14:20:19;20.75;;;6.75;;
66739;SDS011;53653;52.188;8.602;2023-02-13T14:22:47;14.45;;;6.43;;
66739;SDS011;53653;52.188;8.602;2023-02-13T14:25:25;14.53;;;5.93;;
66739;SDS011;53653;52.188;8.602;2023-02-13T14:27:59;14.73;;;6.30;;
66739;SDS011;53653;52.188;8.602;2023-02-13T14:30:29;25.23;;;9.38;;
66739;SDS011;53653;52.188;8.602;2023-02-13T14:33:02;14.77;;;5.95;;
66739;SDS011;53653;52.188;8.602;2023-02-13T14:35:31;15.73;;;6.40;;
66739;SDS011;53653;52.188;8.602;2023-02-13T14:38:04;17.25;;;6.75;;
66739;SDS011;53653;52.188;8.602;2023-02-13T14:40:41;12.93;;;5.70;;
66739;SDS011;53653;52.188;8.602;2023-02-13T14:48:40;13.77;;;5.13;;
66739;SDS011;53653;52.188;8.602;2023-02-13T14:51:34;15.15;;;5.80;;
66739;SDS011;53653;52.188;8.602;2023-02-13T14:54:02;11.95;;;5.00;;
66739;SDS011;53653;52.188;8.602;2023-02-13T14:56:31;15.90;;;6.00;;
66739;SDS011;53653;52.188;8.602;2023-02-13T15:01:28;12.83;;;5.13;;
66739;SDS011;53653;52.188;8.602;2023-02-13T15:04:02;12.85;;;4.68;;
66739;SDS011;53653;52.188;8.602;2023-02-13T15:06:30;15.75;;;5.78;;
66739;SDS011;53653;52.188;8.602;2023-02-13T15:09:02;14.77;;;5.43;;
66739;SDS011;53653;52.188;8.602;2023-02-13T15:11:38;14.15;;;5.13;;
66739;SDS011;53653;52.188;8.602;2023-02-13T15:17:05;12.13;;;4.70;;
66739;SDS011;53653;52.188;8.602;2023-02-13T15:19:44;12.50;;;4.68;;
66739;SDS011;53653;52.188;8.602;2023-02-13T15:24:59;13.68;;;5.15;;
66739;SDS011;53653;52.188;8.602;2023-02-13T15:27:26;12.53;;;4.80;;
66739;SDS011;53653;52.188;8.602;2023-02-13T15:30:15;12.68;;;4.90;;
66739;SDS011;53653;52.188;8.602;2023-02-13T15:32:43;13.68;;;5.18;;
66739;SDS011;53653;52.188;8.602;2023-02-13T15:35:25;14.07;;;5.13;;
66739;SDS011;53653;52.188;8.602;2023-02-13T15:41:00;13.18;;;5.50;;
66739;SDS011;53653;52.188;8.602;2023-02-13T15:43:37;12.85;;;4.72;;
66739;SDS011;53653;52.188;8.602;2023-02-13T15:46:25;11.73;;;4.65;;
66739;SDS011;53653;52.188;8.602;2023-02-13T15:48:58;9.43;;;3.80;;
66739;SDS011;53653;52.188;8.602;2023-02-13T15:51:31;10.32;;;4.25;;
66739;SDS011;53653;52.188;8.602;2023-02-13T15:56:59;11.25;;;4.60;;
66739;SDS011;53653;52.188;8.602;2023-02-13T15:59:30;10.07;;;4.18;;
66739;SDS011;53653;52.188;8.602;2023-02-13T16:02:02;12.03;;;3.93;;
66739;SDS011;53653;52.188;8.602;2023-02-13T16:04:30;10.38;;;4.40;;
66739;SDS011;53653;52.188;8.602;2023-02-13T16:06:56;9.25;;;3.78;;
66739;SDS011;53653;52.188;8.602;2023-02-13T16:09:32;9.63;;;4.13;;
66739;SDS011;53653;52.188;8.602;2023-02-13T16:15:02;9.67;;;4.20;;
66739;SDS011;53653;52.188;8.602;2023-02-13T16:17:37;9.32;;;4.10;;
66739;SDS011;53653;52.188;8.602;2023-02-13T16:22:53;9.70;;;4.00;;
66739;SDS011;53653;52.188;8.602;2023-02-13T16:27:50;10.73;;;4.43;;
66739;SDS011;53653;52.188;8.602;2023-02-13T16:30:31;10.55;;;4.20;;
66739;SDS011;53653;52.188;8.602;2023-02-13T16:35:38;11.52;;;4.20;;
66739;SDS011;53653;52.188;8.602;2023-02-13T16:38:31;10.35;;;4.47;;
66739;SDS011;53653;52.188;8.602;2023-02-13T16:41:03;14.40;;;5.43;;
66739;SDS011;53653;52.188;8.602;2023-02-13T17:04:52;12.05;;;5.38;;
66739;SDS011;53653;52.188;8.602;2023-02-13T17:07:34;12.70;;;5.23;;
66739;SDS011;53653;52.188;8.602;2023-02-13T17:10:01;13.93;;;5.75;;
66739;SDS011;53653;52.188;8.602;2023-02-13T17:12:44;12.40;;;5.28;;
66739;SDS011;53653;52.188;8.602;2023-02-13T17:15:10;19.42;;;8.43;;
66739;SDS011;53653;52.188;8.602;2023-02-13T17:17:38;17.73;;;7.80;;
66739;SDS011;53653;52.188;8.602;2023-02-13T17:20:04;17.87;;;7.47;;
66739;SDS011;53653;52.188;8.602;2023-02-13T17:22:36;19.33;;;9.05;;
66739;SDS011;53653;52.188;8.602;2023-02-13T17:25:05;18.90;;;9.30;;
66739;SDS011;53653;52.188;8.602;2023-02-13T17:27:33;21.13;;;9.93;;
66739;SDS011;53653;52.188;8.602;2023-02-13T17:29:59;18.70;;;9.15;;
66739;SDS011;53653;52.188;8.602;2023-02-13T17:32:25;26.03;;;12.00;;
66739;SDS011;53653;52.188;8.602;2023-02-13T17:34:51;25.15;;;11.05;;
66739;SDS011;53653;52.188;8.602;2023-02-13T17:37:18;24.90;;;12.13;;
66739;SDS011;53653;52.188;8.602;2023-02-13T17:39:49;23.10;;;11.63;;
66739;SDS011;53653;52.188;8.602;2023-02-13T17:42:19;23.10;;;11.98;;
66739;SDS011;53653;52.188;8.602;2023-02-13T17:44:50;24.23;;;12.52;;
66739;SDS011;53653;52.188;8.602;2023-02-13T17:47:16;25.35;;;11.60;;
66739;SDS011;53653;52.188;8.602;2023-02-13T17:49:42;23.50;;;11.55;;
66739;SDS011;53653;52.188;8.602;2023-02-13T17:52:09;22.43;;;11.43;;
66739;SDS011;53653;52.188;8.602;2023-02-13T17:54:39;20.90;;;10.43;;
66739;SDS011;53653;52.188;8.602;2023-02-13T17:57:04;22.80;;;11.53;;